Time;durP1;ratioP1;P1;durP2;ratioP2;P2;SDS_P1;SDS_P2;PMS_P1;PMS_P2;Temp;Humidity;BMP_temperature;BMP_pressure;BME280_temperature;BME280_humidity;BME280_pressure;Samples;Min_cycle;Max_cycle;Signal;HPM_P1;HPM_P2
2022/09/19 00:02:27;;;;;;;4.00;1.50;;;;;;;6.21;97.05;100399.37;106776;1250;62942;-71
2022/09/19 00:04:55;;;;;;;6.80;1.40;;;;;;;6.19;96.21;100397.42;107165;1250;60758;-77
2022/09/19 00:07:24;;;;;;;1.90;1.20;;;;;;;6.15;95.85;100394.05;107175;1250;73355;-75
2022/09/19 00:09:53;;;;;;;3.20;1.30;;;;;;;6.11;95.37;100393.57;107092;1250;71725;-76
2022/09/19 00:12:22;;;;;;;3.50;1.40;;;;;;;6.07;94.78;100395.68;107050;1251;71108;-71
2022/09/19 00:14:50;;;;;;;2.20;1.40;;;;;;;6.02;95.38;100392.19;107253;1250;74496;-68
2022/09/19 00:17:19;;;;;;;4.50;2.20;;;;;;;5.99;95.15;100389.23;107019;1252;61764;-67
2022/09/19 00:19:48;;;;;;;4.40;1.60;;;;;;;6.00;95.39;100389.73;107085;1250;59108;-68
2022/09/19 00:22:17;;;;;;;5.20;2.90;;;;;;;6.03;96.57;100396.11;107119;1250;73608;-72
2022/09/19 00:24:46;;;;;;;2.40;1.60;;;;;;;6.00;95.96;100397.33;107165;1250;71955;-71
2022/09/19 00:27:25;;;;;;;4.60;1.40;;;;;;;6.02;97.33;100402.23;107129;1250;68284;-71
2022/09/19 00:29:54;;;;;;;3.60;1.40;;;;;;;5.99;96.42;100404.11;106971;1250;74007;-72
2022/09/19 00:32:24;;;;;;;3.30;1.30;;;;;;;5.93;95.37;100408.79;106979;1251;62820;-72
2022/09/19 00:34:55;;;;;;;2.30;1.30;;;;;;;5.87;96.17;100412.55;107313;1250;60901;-71
2022/09/19 00:37:24;;;;;;;6.90;4.40;;;;;;;5.83;96.04;100410.90;107280;1250;74723;-70
2022/09/19 00:39:54;;;;;;;2.80;1.20;;;;;;;5.79;97.20;100410.27;107245;1250;72689;-71
2022/09/19 00:42:25;;;;;;;3.10;1.40;;;;;;;5.78;97.68;100408.77;107225;1250;67676;-72
2022/09/19 00:44:58;;;;;;;2.20;1.40;;;;;;;5.74;96.72;100411.95;106938;1250;73140;-70
2022/09/19 00:47:35;;;;;;;1.50;1.30;;;;;;;5.70;95.79;100414.55;107123;1250;63837;-73
2022/09/19 00:50:13;;;;;;;2.50;1.30;;;;;;;5.67;96.30;100410.62;107148;1250;62074;-73
2022/09/19 00:52:55;;;;;;;1.80;1.20;;;;;;;5.70;97.50;100419.21;107006;1252;73249;-71
2022/09/19 00:55:24;;;;;;;1.70;1.20;;;;;;;5.77;98.15;100415.91;107191;1251;70711;-71
2022/09/19 00:58:44;;;;;;;2.10;1.50;;;;;;;5.75;97.01;100421.70;107279;1250;67926;-72
2022/09/19 01:01:15;;;;;;;3.60;1.50;;;;;;;5.74;96.38;100423.84;107333;1250;72267;-71
2022/09/19 01:03:46;;;;;;;1.60;1.30;;;;;;;5.77;97.29;100422.27;106977;1253;62910;-70
2022/09/19 01:06:41;;;;;;;1.70;1.40;;;;;;;5.83;97.58;100422.81;107164;1253;61828;-71
2022/09/19 01:09:47;;;;;;;2.20;1.30;;;;;;;5.90;97.51;100422.77;107243;1250;74239;-70
2022/09/19 01:12:31;;;;;;;4.20;1.30;;;;;;;5.92;97.08;100416.79;107202;1250;70708;-71
2022/09/19 01:15:19;;;;;;;2.40;1.50;;;;;;;5.97;97.02;100411.31;107267;1250;69461;-70
2022/09/19 01:17:57;;;;;;;3.70;1.50;;;;;;;5.93;96.84;100412.22;107165;1252;72309;-71
2022/09/19 01:20:46;;;;;;;3.40;1.50;;;;;;;5.91;96.77;100412.35;106994;1250;62258;-70
2022/09/19 01:23:55;;;;;;;1.50;1.40;;;;;;;5.85;96.33;100415.77;107458;1250;58936;-70
2022/09/19 01:27:17;;;;;;;2.50;1.20;;;;;;;5.79;96.03;100416.81;107409;1250;71768;-71
2022/09/19 01:30:03;;;;;;;2.80;1.30;;;;;;;5.74;96.86;100420.70;107199;1250;72249;-74
2022/09/19 01:33:06;;;;;;;1.80;1.40;;;;;;;5.75;96.77;100421.02;107234;1250;70862;-71
2022/09/19 01:35:39;;;;;;;2.50;1.30;;;;;;;5.68;96.34;100424.73;107267;1250;72480;-71
2022/09/19 01:38:37;;;;;;;1.80;1.50;;;;;;;5.64;96.82;100425.63;107117;1250;61878;-70
2022/09/19 01:41:08;;;;;;;2.60;1.50;;;;;;;5.56;95.89;100426.91;107140;1252;61254;-71
2022/09/19 01:43:36;;;;;;;1.80;1.10;;;;;;;5.50;95.52;100425.23;107227;1251;75218;-72
2022/09/19 01:46:21;;;;;;;2.70;1.40;;;;;;;5.44;95.50;100428.32;107369;1250;71552;-71
2022/09/19 01:49:08;;;;;;;3.60;1.30;;;;;;;5.37;94.79;100426.30;107307;1253;67717;-73
2022/09/19 01:51:55;;;;;;;1.70;1.20;;;;;;;5.29;94.75;100429.83;107094;1251;71183;-72
2022/09/19 01:54:36;;;;;;;1.80;1.30;;;;;;;5.22;94.73;100429.71;107153;1250;62259;-68
2022/09/19 01:57:43;;;;;;;1.50;1.10;;;;;;;5.19;95.23;100433.98;107303;1250;59425;-73
2022/09/19 02:00:20;;;;;;;1.40;1.20;;;;;;;5.24;97.95;100435.98;107291;1250;73593;-73
2022/09/19 02:03:07;;;;;;;2.50;1.50;;;;;;;5.22;96.67;100440.42;107252;1250;72603;-71
2022/09/19 02:05:56;;;;;;;2.90;1.30;;;;;;;5.18;95.87;100436.10;107264;1250;68441;-71
2022/09/19 02:08:36;;;;;;;1.70;1.20;;;;;;;5.16;96.74;100439.19;107239;1250;72355;-71
2022/09/19 02:11:15;;;;;;;2.50;1.30;;;;;;;5.16;97.97;100435.35;107264;1250;60544;-70
2022/09/19 02:14:17;;;;;;;1.70;1.20;;;;;;;5.20;98.45;100440.14;107343;1250;58904;-70
2022/09/19 02:17:16;;;;;;;1.90;1.20;;;;;;;5.14;96.56;100446.17;107311;1250;72137;-71
2022/09/19 02:20:22;;;;;;;3.00;1.20;;;;;;;5.16;97.77;100451.40;107230;1250;72123;-72
2022/09/19 02:23:00;;;;;;;1.60;1.20;;;;;;;5.25;98.38;100455.08;107240;1250;69416;-72
2022/09/19 02:25:34;;;;;;;2.40;1.30;;;;;;;5.23;97.87;100451.91;107229;1250;73700;-71
2022/09/19 02:28:14;;;;;;;2.70;1.30;;;;;;;5.25;98.13;100454.91;107179;1250;61755;-72
2022/09/19 02:30:43;;;;;;;1.20;1.10;;;;;;;5.23;97.81;100454.98;107140;1250;59930;-71
2022/09/19 02:33:12;;;;;;;1.30;1.20;;;;;;;5.23;98.03;100458.98;107301;1250;72862;-72
2022/09/19 02:36:30;;;;;;;1.80;1.30;;;;;;;5.21;97.95;100455.45;107062;1250;70661;-73
2022/09/19 02:39:26;;;;;;;2.20;1.30;;;;;;;5.23;98.12;100453.30;107076;1250;69744;-71
2022/09/19 02:42:34;;;;;;;4.30;1.30;;;;;;;5.28;98.41;100451.96;107220;1253;72609;-71
2022/09/19 02:45:44;;;;;;;2.60;1.20;;;;;;;5.32;98.15;100457.42;107213;1250;62975;-73
2022/09/19 02:48:50;;;;;;;2.00;1.30;;;;;;;5.26;97.57;100451.21;107265;1250;60814;-71
2022/09/19 02:51:34;;;;;;;1.90;1.30;;;;;;;5.31;98.52;100456.13;106810;1253;72290;-72
2022/09/19 02:54:16;;;;;;;3.00;1.50;;;;;;;5.27;98.06;100459.09;107052;1250;73111;-71
2022/09/19 02:56:47;;;;;;;2.70;1.40;;;;;;;5.27;98.31;100459.30;106825;1250;70398;-73
2022/09/19 02:59:25;;;;;;;2.40;1.60;;;;;;;5.31;98.61;100466.81;106936;1250;73629;-71
2022/09/19 03:02:07;;;;;;;4.20;1.60;;;;;;;5.33;98.08;100476.55;107094;1251;62448;-73
2022/09/19 03:04:44;;;;;;;4.20;2.30;;;;;;;5.34;98.04;100482.21;107105;1250;60848;-72
2022/09/19 03:07:30;;;;;;;3.20;2.10;;;;;;;5.33;97.52;100479.50;106973;1251;71277;-73
2022/09/19 03:10:22;;;;;;;3.30;1.50;;;;;;;5.36;97.33;100491.77;106976;1253;72641;-75
2022/09/19 03:13:10;;;;;;;2.60;1.30;;;;;;;5.35;97.07;100491.30;107080;1251;68287;-73
2022/09/19 03:15:49;;;;;;;3.80;1.80;;;;;;;5.37;97.16;100490.16;107000;1253;71980;-73
2022/09/19 03:18:26;;;;;;;1.40;1.30;;;;;;;5.45;97.50;100492.32;107108;1250;62118;-71
2022/09/19 03:21:04;;;;;;;3.50;1.60;;;;;;;5.43;96.50;100500.87;106971;1252;60123;-71
2022/09/19 03:23:40;;;;;;;5.40;1.30;;;;;;;5.40;95.94;100502.98;106972;1253;70890;-72
2022/09/19 03:26:14;;;;;;;2.70;1.10;;;;;;;5.31;95.48;100503.27;106824;1253;70589;-72
2022/09/19 03:28:43;;;;;;;1.70;1.00;;;;;;;5.24;95.45;100505.01;106988;1250;70662;-72
2022/09/19 03:31:11;;;;;;;1.60;1.20;;;;;;;5.18;95.31;100506.73;106942;1250;71619;-72
2022/09/19 03:33:40;;;;;;;3.00;1.30;;;;;;;5.13;95.78;100511.66;107648;1247;60563;-73
2022/09/19 03:36:11;;;;;;;1.70;1.30;;;;;;;5.11;96.93;100512.62;107789;1244;61326;-76
2022/09/19 03:38:44;;;;;;;2.60;1.70;;;;;;;5.11;97.32;100512.29;106446;1247;1751905;-74
2022/09/19 03:41:19;;;;;;;21.20;11.00;;;;;;;5.17;99.01;100513.52;107761;1244;72727;-73
2022/09/19 03:43:50;;;;;;;6.00;1.90;;;;;;;5.23;99.65;100512.48;107749;1244;70978;-74
2022/09/19 03:46:20;;;;;;;2.60;1.60;;;;;;;5.34;99.77;100515.86;107781;1244;73602;-73
2022/09/19 03:48:50;;;;;;;2.90;1.70;;;;;;;5.35;97.93;100521.55;107631;1245;62510;-71
2022/09/19 03:51:18;;;;;;;5.20;1.90;;;;;;;5.34;97.46;100521.06;107725;1244;60185;-73
2022/09/19 03:53:47;;;;;;;3.50;1.70;;;;;;;5.31;97.08;100522.74;107814;1244;71684;-73
2022/09/19 03:56:16;;;;;;;3.70;1.60;;;;;;;5.29;97.28;100525.79;107828;1245;71298;-73
2022/09/19 03:58:48;;;;;;;4.10;1.50;;;;;;;5.29;97.13;100532.02;107747;1246;71455;-73
2022/09/19 04:01:18;;;;;;;4.40;1.20;;;;;;;5.27;96.30;100538.85;107782;1244;72489;-72
2022/09/19 04:03:52;;;;;;;4.20;1.50;;;;;;;5.24;96.49;100536.83;107846;1244;59556;-75
2022/09/19 04:06:22;;;;;;;4.50;1.40;;;;;;;5.24;97.26;100541.99;107770;1245;59996;-74
2022/09/19 04:08:51;;;;;;;6.30;1.40;;;;;;;5.25;97.50;100549.84;107558;1247;70935;-74
2022/09/19 04:11:21;;;;;;;5.50;1.90;;;;;;;5.28;97.63;100549.70;107760;1245;69548;-75
2022/09/19 04:13:51;;;;;;;5.40;1.80;;;;;;;5.33;97.58;100556.17;107808;1245;66896;-74
2022/09/19 04:16:24;;;;;;;10.00;2.20;;;;;;;5.42;97.62;100552.42;107844;1244;73163;-74
2022/09/19 04:18:53;;;;;;;8.50;2.60;;;;;;;5.51;97.45;100544.65;107731;1247;63057;-73
2022/09/19 04:22:02;;;;;;;9.70;2.40;;;;;;;5.61;96.94;100549.31;107665;1244;59576;-73
2022/09/19 04:24:42;;;;;;;6.90;2.20;;;;;;;5.68;96.97;100550.48;107701;1246;71286;-72
2022/09/19 04:27:20;;;;;;;8.10;2.60;;;;;;;5.74;96.93;100551.20;107783;1244;70445;-73
2022/09/19 04:29:50;;;;;;;9.20;3.30;;;;;;;5.81;97.02;100557.87;107863;1245;68306;-72
2022/09/19 04:32:21;;;;;;;9.30;2.90;;;;;;;5.89;96.99;100563.89;107660;1247;72033;-74
2022/09/19 04:34:55;;;;;;;8.30;3.00;;;;;;;5.98;96.52;100571.66;107699;1247;60878;-75
2022/09/19 04:37:26;;;;;;;9.50;3.70;;;;;;;6.10;96.32;100566.72;107957;1244;58926;-73
2022/09/19 04:40:06;;;;;;;7.30;3.00;;;;;;;6.22;95.97;100569.13;107925;1244;70927;-74
2022/09/19 04:42:35;;;;;;;6.70;3.00;;;;;;;6.30;95.81;100571.11;107820;1245;70756;-72
2022/09/19 04:45:07;;;;;;;7.80;2.90;;;;;;;6.40;95.01;100582.62;107800;1247;69781;-75
2022/09/19 04:47:59;;;;;;;9.60;3.30;;;;;;;6.56;94.36;100577.03;107761;1247;73278;-73
2022/09/19 04:50:36;;;;;;;8.00;2.90;;;;;;;6.72;94.30;100585.98;107834;1245;61109;-75
2022/09/19 04:53:05;;;;;;;12.40;4.50;;;;;;;6.95;94.46;100587.58;107665;1247;61245;-72
2022/09/19 04:55:34;;;;;;;12.10;3.40;;;;;;;7.14;94.00;100586.43;107694;1247;71358;-74
2022/09/19 04:58:07;;;;;;;12.40;3.70;;;;;;;7.33;93.46;100588.75;107803;1247;70370;-72
2022/09/19 05:00:38;;;;;;;6.40;3.00;;;;;;;7.55;91.90;100592.98;107870;1244;69878;-73
2022/09/19 05:03:17;;;;;;;9.70;4.80;;;;;;;7.71;91.84;100596.67;107865;1244;71435;-70
2022/09/19 05:05:50;;;;;;;9.40;3.60;;;;;;;7.89;91.68;100599.52;107808;1243;63401;-72
2022/09/19 05:08:33;;;;;;;4.20;2.60;;;;;;;8.03;91.19;100600.67;107789;1244;61014;-74
2022/09/19 05:11:12;;;;;;;6.10;2.30;;;;;;;8.22;90.77;100598.60;107651;1247;72200;-71
2022/09/19 05:13:41;;;;;;;5.60;1.50;;;;;;;8.43;88.07;100601.83;107776;1246;72090;-73
2022/09/19 05:16:15;;;;;;;4.80;1.70;;;;;;;8.62;89.04;100595.21;107593;1246;70052;-71
2022/09/19 05:18:52;;;;;;;4.10;1.40;;;;;;;8.83;86.87;100591.89;107816;1246;71834;-74
2022/09/19 05:21:21;;;;;;;3.90;2.20;;;;;;;9.05;84.98;100592.83;107649;1247;58943;-75
2022/09/19 05:23:51;;;;;;;4.30;1.80;;;;;;;9.26;84.88;100588.61;107675;1247;60226;-69
2022/09/19 05:26:20;;;;;;;5.20;1.50;;;;;;;9.44;83.75;100587.36;107762;1245;72638;-69
2022/09/19 05:28:51;;;;;;;6.00;1.80;;;;;;;9.61;82.09;100587.73;107894;1244;70249;-71
2022/09/19 05:31:22;;;;;;;6.50;2.20;;;;;;;9.80;78.25;100590.91;107689;1243;70577;-68
2022/09/19 05:34:06;;;;;;;6.60;1.50;;;;;;;10.01;73.40;100585.39;107805;1244;71579;-69
2022/09/19 05:36:35;;;;;;;5.00;1.70;;;;;;;10.19;71.52;100580.82;107665;1245;60569;-67
2022/09/19 05:39:50;;;;;;;5.90;2.10;;;;;;;10.42;72.78;100576.06;107606;1247;61330;-65
2022/09/19 05:43:10;;;;;;;7.00;2.50;;;;;;;10.66;70.69;100573.86;107749;1246;74507;-67
2022/09/19 05:45:39;;;;;;;5.60;2.30;;;;;;;10.82;67.88;100570.59;107822;1244;71086;-68
2022/09/19 05:48:09;;;;;;;8.00;2.80;;;;;;;10.95;66.69;100573.25;107829;1244;70119;-67
2022/09/19 05:50:38;;;;;;;8.90;2.70;;;;;;;11.06;66.04;100573.32;107709;1245;74408;-68
2022/09/19 05:56:04;;;;;;;6.20;2.00;;;;;;;11.32;66.05;100565.56;107683;1244;59737;-68
2022/09/19 05:58:53;;;;;;;7.10;2.20;;;;;;;11.48;66.26;100564.82;110159;1243;74562;-68
2022/09/19 06:01:24;;;;;;;5.30;1.80;;;;;;;11.62;66.07;100565.23;110085;1244;70082;-70
2022/09/19 06:03:53;;;;;;;4.20;1.60;;;;;;;11.75;67.42;100569.80;110067;1244;68728;-68
2022/09/19 06:06:24;;;;;;;4.50;1.80;;;;;;;11.83;64.15;100572.02;110086;1244;72862;-68
2022/09/19 06:08:58;;;;;;;4.00;1.80;;;;;;;11.96;64.63;100572.90;110079;1244;60808;-69
2022/09/19 06:11:33;;;;;;;5.50;2.30;;;;;;;12.05;63.31;100573.52;108693;1244;61499;-68
2022/09/19 06:14:22;;;;;;;6.00;2.90;;;;;;;12.16;63.05;100577.53;107903;1244;72549;-67
2022/09/19 06:16:53;;;;;;;6.40;2.80;;;;;;;12.13;62.18;100582.83;107819;1244;69842;-69
2022/09/19 06:19:25;;;;;;;;;;;;;;;12.14;61.08;100586.23;107893;1244;69844;-66
2022/09/19 06:22:13;;;;;;;10.60;2.80;;;;;;;12.20;61.66;100591.85;107958;1244;74290;-68
2022/09/19 06:24:43;;;;;;;9.10;2.50;;;;;;;12.25;62.29;100592.94;107957;1244;60450;-69
2022/09/19 06:27:12;;;;;;;5.20;2.10;;;;;;;12.31;62.12;100596.80;107821;1244;58906;-68
2022/09/19 06:29:44;;;;;;;7.00;1.90;;;;;;;12.28;61.59;100592.09;107735;1245;72109;-68
2022/09/19 06:32:22;;;;;;;8.90;2.40;;;;;;;12.35;62.59;100591.00;107610;1247;73127;-68
2022/09/19 06:35:05;;;;;;;4.60;2.30;;;;;;;12.32;61.30;100590.96;107737;1244;70392;-67
2022/09/19 06:37:35;;;;;;;6.80;2.70;;;;;;;12.42;61.31;100592.40;107765;1244;71519;-66
2022/09/19 06:40:06;;;;;;;4.70;2.00;;;;;;;12.61;61.62;100591.89;107734;1244;59640;-71
2022/09/19 06:42:38;;;;;;;6.50;2.00;;;;;;;12.71;60.08;100591.21;108196;1244;59984;-69
2022/09/19 06:45:25;;;;;;;4.20;2.10;;;;;;;12.74;60.12;100595.17;107482;1246;73253;-69
2022/09/19 06:48:01;;;;;;;4.60;1.90;;;;;;;12.79;59.97;100597.73;109898;1246;71204;-69
2022/09/19 06:50:46;;;;;;;10.00;2.00;;;;;;;12.85;59.01;100606.81;109807;1246;70714;-69
2022/09/19 06:53:18;;;;;;;5.60;2.10;;;;;;;12.88;59.29;100609.48;109953;1244;73229;-69
2022/09/19 06:55:49;;;;;;;7.10;1.80;;;;;;;12.94;59.08;100613.55;108104;1246;60173;-69
2022/09/19 06:58:23;;;;;;;5.80;1.60;;;;;;;12.98;60.71;100613.23;107608;1247;60754;-67
2022/09/19 07:00:53;;;;;;;2.90;1.50;;;;;;;13.09;59.18;100614.91;107654;1247;69937;-69
2022/09/19 07:03:24;;;;;;;3.90;1.40;;;;;;;13.23;58.43;100618.65;107813;1247;69576;-70
2022/09/19 07:05:59;;;;;;;2.60;1.50;;;;;;;13.34;58.62;100625.81;107568;1247;70973;-66
2022/09/19 07:08:40;;;;;;;2.10;1.10;;;;;;;13.52;56.43;100624.03;107656;1247;72986;-67
2022/09/19 07:11:10;;;;;;;6.00;1.50;;;;;;;13.59;56.83;100617.51;107703;1246;61225;-69
2022/09/19 07:13:47;;;;;;;3.40;1.20;;;;;;;13.73;57.11;100606.89;107790;1244;60948;-69
2022/09/19 07:16:18;;;;;;;3.10;1.30;;;;;;;13.90;57.29;100609.20;107756;1247;72029;-69
2022/09/19 07:18:47;;;;;;;3.90;1.60;;;;;;;14.05;55.90;100604.89;107569;1247;68831;-72
2022/09/19 07:21:57;;;;;;;4.20;1.50;;;;;;;14.33;53.14;100601.88;107414;1243;70373;-69
2022/09/19 07:24:45;;;;;;;2.40;1.00;;;;;;;14.50;53.76;100597.39;107664;1247;73764;-68
2022/09/19 07:27:26;;;;;;;3.50;1.30;;;;;;;14.71;51.58;100599.00;107690;1244;61443;-67
2022/09/19 07:29:55;;;;;;;2.30;0.80;;;;;;;14.85;50.48;100596.09;107762;1245;59087;-69
2022/09/19 07:32:24;;;;;;;2.40;1.00;;;;;;;14.99;49.21;100601.48;107749;1245;69948;-68
2022/09/19 07:34:53;;;;;;;2.80;1.10;;;;;;;15.16;48.23;100602.08;107683;1247;70691;-67
2022/09/19 07:37:22;;;;;;;2.80;1.50;;;;;;;15.22;49.46;100603.57;107673;1247;67272;-67
2022/09/19 07:40:14;;;;;;;2.80;1.50;;;;;;;15.47;46.72;100602.13;107653;1247;72616;-68
2022/09/19 07:43:04;;;;;;;1.40;0.80;;;;;;;15.46;48.11;100603.76;107774;1246;60315;-71
2022/09/19 07:45:53;;;;;;;1.10;0.80;;;;;;;15.71;45.66;100608.02;107797;1245;59851;-71
2022/09/19 07:48:37;;;;;;;1.90;0.90;;;;;;;15.91;43.50;100612.30;107618;1247;72547;-70
2022/09/19 07:51:52;;;;;;;1.60;0.60;;;;;;;15.99;43.38;100615.96;107507;1247;71373;-69
2022/09/19 07:54:21;;;;;;;2.30;0.90;;;;;;;16.11;41.66;100613.38;107770;1245;69039;-68
2022/09/19 07:56:50;;;;;;;2.10;0.80;;;;;;;16.21;41.73;100616.08;107721;1247;70474;-66
2022/09/19 07:59:19;;;;;;;1.20;0.80;;;;;;;16.23;41.52;100621.64;107624;1245;60607;-69
2022/09/19 08:02:00;;;;;;;2.00;0.70;;;;;;;16.24;42.40;100614.96;107635;1245;59950;-73
2022/09/19 08:04:39;;;;;;;4.30;0.80;;;;;;;16.37;41.45;100617.88;107511;1247;71681;-68
2022/09/19 08:07:09;;;;;;;0.80;0.50;;;;;;;16.39;40.07;100626.77;107630;1244;73177;-69
2022/09/19 08:09:39;;;;;;;2.00;0.70;;;;;;;16.32;40.40;100625.30;107538;1247;69172;-70
2022/09/19 08:12:31;;;;;;;2.00;0.80;;;;;;;16.28;42.23;100626.66;107585;1244;73541;-68
2022/09/19 08:15:10;;;;;;;2.10;0.90;;;;;;;16.51;40.93;100626.34;107638;1247;61672;-70
2022/09/19 08:17:39;;;;;;;1.10;0.70;;;;;;;16.55;40.67;100627.70;107627;1244;61926;-71
2022/09/19 08:20:08;;;;;;;2.00;0.80;;;;;;;16.47;41.25;100631.45;107609;1245;73408;-66
2022/09/19 08:22:39;;;;;;;1.00;0.60;;;;;;;16.58;41.06;100631.02;107534;1247;71676;-71
2022/09/19 08:25:09;;;;;;;2.10;0.60;;;;;;;16.64;40.49;100634.81;107626;1246;70669;-69
2022/09/19 08:27:44;;;;;;;1.60;0.80;;;;;;;16.74;40.36;100635.43;107753;1244;73296;-68
2022/09/19 08:30:13;;;;;;;1.60;0.70;;;;;;;16.96;39.96;100634.50;107415;1247;59707;-69
2022/09/19 08:32:46;;;;;;;1.80;0.90;;;;;;;16.95;40.60;100627.57;107669;1247;59728;-67
2022/09/19 08:35:16;;;;;;;2.70;0.60;;;;;;;17.03;40.48;100632.00;107652;1247;72610;-67
2022/09/19 08:37:46;;;;;;;3.30;0.70;;;;;;;17.15;37.90;100630.80;107678;1245;72270;-67
2022/09/19 08:40:30;;;;;;;4.10;0.80;;;;;;;16.93;39.89;100635.20;107504;1245;70125;-66
2022/09/19 08:43:12;;;;;;;0.90;0.70;;;;;;;16.92;39.29;100631.17;107518;1246;74208;-67
2022/09/19 08:46:33;;;;;;;4.10;1.40;;;;;;;16.79;39.70;100629.95;107623;1247;59067;-68
2022/09/19 08:49:04;;;;;;;0.90;0.60;;;;;;;16.73;39.31;100626.98;107537;1247;61175;-68
2022/09/19 08:52:07;;;;;;;1.80;0.70;;;;;;;16.69;39.26;100629.77;107608;1244;71985;-68
2022/09/19 08:54:48;;;;;;;1.90;0.80;;;;;;;16.65;39.57;100627.66;107529;1247;70853;-69
2022/09/19 08:57:30;;;;;;;2.70;0.90;;;;;;;16.56;40.15;100624.93;107629;1247;67904;-68
2022/09/19 09:00:16;;;;;;;1.30;0.60;;;;;;;16.56;40.15;100625.40;107612;1244;72280;-69
2022/09/19 09:02:52;;;;;;;1.80;1.10;;;;;;;16.56;39.63;100621.05;107695;1245;61323;-70
2022/09/19 09:06:26;;;;;;;2.50;1.10;;;;;;;16.43;40.95;100627.98;107803;1246;59284;-70
2022/09/19 09:09:16;;;;;;;1.80;0.70;;;;;;;16.59;40.74;100623.91;107734;1247;73617;-67
2022/09/19 09:12:07;;;;;;;1.70;0.70;;;;;;;16.60;40.39;100620.69;107824;1247;70683;-69
2022/09/19 09:15:07;;;;;;;2.00;0.90;;;;;;;16.63;39.80;100618.94;107853;1244;69746;-68
2022/09/19 09:18:44;;;;;;;0.90;0.60;;;;;;;16.46;40.40;100613.94;107849;1245;62473;-68
2022/09/19 09:21:33;;;;;;;1.40;0.90;;;;;;;16.31;40.73;100615.45;107686;1247;60295;-71
2022/09/19 09:24:24;;;;;;;2.50;1.30;;;;;;;16.26;41.28;100615.26;107705;1247;61428;-70
2022/09/19 09:28:38;;;;;;;2.80;0.70;;;;;;;16.32;40.47;100611.70;107589;1247;72376;-69
2022/09/19 09:31:27;;;;;;;3.50;0.80;;;;;;;16.32;40.70;100604.11;107713;1247;68666;-70
2022/09/19 09:34:28;;;;;;;4.40;1.00;;;;;;;16.41;40.95;100607.80;107842;1245;70295;-70
2022/09/19 09:37:11;;;;;;;2.30;0.90;;;;;;;16.59;41.11;100611.03;107769;1247;74741;-67
2022/09/19 09:40:09;;;;;;;;;;;;;;;16.90;40.50;100613.83;107859;1247;61085;-68
2022/09/19 09:43:02;;;;;;;1.80;0.90;;;;;;;17.29;38.89;100615.11;107950;1244;61611;-70
2022/09/19 09:45:39;;;;;;;3.10;1.30;;;;;;;17.53;38.67;100610.73;107880;1244;72703;-68
2022/09/19 09:48:32;;;;;;;2.10;0.80;;;;;;;17.69;38.65;100601.37;107853;1245;72717;-70
2022/09/19 09:51:41;;;;;;;3.20;0.60;;;;;;;17.79;37.84;100599.94;107957;1245;70931;-71
2022/09/19 09:57:57;;;;;;;1.20;0.70;;;;;;;17.84;36.29;100606.44;107777;1247;58969;-68
2022/09/19 10:03:36;;;;;;;1.20;0.80;;;;;;;17.45;36.73;100599.94;107747;1244;72803;-67
2022/09/19 10:07:10;;;;;;;3.40;1.10;;;;;;;17.28;37.12;100595.33;107539;1246;62387;-68
2022/09/19 10:09:49;;;;;;;2.40;0.80;;;;;;;17.19;37.67;100598.91;107767;1245;60292;-67
2022/09/19 10:12:38;;;;;;;1.50;0.70;;;;;;;17.29;37.57;100598.93;107557;1247;63258;-69
2022/09/19 10:15:23;;;;;;;0.70;0.50;;;;;;;17.33;37.22;100604.54;107703;1247;58035;-69
2022/09/19 10:18:50;;;;;;;1.20;0.80;;;;;;;17.21;37.41;100603.05;107792;1245;61290;-67
2022/09/19 10:21:19;;;;;;;1.60;0.80;;;;;;;17.47;36.91;100606.02;107908;1245;74112;-70
2022/09/19 10:23:52;;;;;;;1.20;0.60;;;;;;;17.72;36.47;100612.67;107764;1247;71255;-69
2022/09/19 10:26:30;;;;;;;1.90;0.80;;;;;;;17.98;36.17;100610.30;107883;1244;60512;-70
2022/09/19 10:29:12;;;;;;;3.00;0.80;;;;;;;18.18;35.88;100604.98;107803;1244;64240;-68
2022/09/19 10:31:42;;;;;;;2.80;1.00;;;;;;;18.47;36.14;100595.77;107580;1247;57355;-69
2022/09/19 10:34:34;;;;;;;1.80;0.90;;;;;;;19.30;34.69;100598.38;107748;1244;61843;-68
2022/09/19 10:37:29;;;;;;;1.40;0.80;;;;;;;19.45;34.75;100596.94;107767;1245;71561;-73
2022/09/19 10:40:06;;;;;;;2.50;0.60;;;;;;;19.64;34.43;100591.38;107646;1247;71917;-69
2022/09/19 10:42:43;;;;;;;2.20;0.70;;;;;;;20.11;32.75;100593.50;107733;1243;71170;-70
2022/09/19 10:45:25;;;;;;;2.20;0.90;;;;;;;20.01;32.99;100591.79;107727;1244;73870;-70
2022/09/19 10:48:08;;;;;;;0.90;0.70;;;;;;;20.40;32.72;100586.77;107738;1247;58205;-68
2022/09/19 10:50:47;;;;;;;2.20;0.70;;;;;;;20.74;32.98;100589.15;107776;1247;60311;-70
2022/09/19 10:53:32;;;;;;;4.20;1.10;;;;;;;21.06;32.09;100592.29;107727;1247;73342;-69
2022/09/19 10:56:24;;;;;;;2.60;0.90;;;;;;;20.88;31.96;100588.59;107691;1247;72809;-69
2022/09/19 10:59:11;;;;;;;2.80;1.00;;;;;;;20.53;31.79;100580.64;107773;1247;71153;-70
2022/09/19 11:02:09;;;;;;;2.90;0.90;;;;;;;21.09;31.91;100584.54;107703;1246;75416;-67
2022/09/19 11:04:39;;;;;;;4.50;0.90;;;;;;;21.82;30.85;100587.20;107569;1247;59021;-68
2022/09/19 11:07:18;;;;;;;3.10;0.90;;;;;;;21.44;31.02;100587.53;107621;1247;58836;-69
2022/09/19 11:09:53;;;;;;;1.50;0.90;;;;;;;21.46;31.52;100590.32;107834;1244;62264;-68
2022/09/19 11:12:22;;;;;;;4.60;1.10;;;;;;;21.84;30.95;100586.92;107555;1244;72762;-70
2022/09/19 11:14:55;;;;;;;3.00;0.90;;;;;;;21.84;30.68;100581.53;107716;1247;70126;-70
2022/09/19 11:18:01;;;;;;;2.60;0.90;;;;;;;21.67;30.52;100582.31;107769;1244;74520;-71
2022/09/19 11:21:00;;;;;;;2.00;0.40;;;;;;;21.25;31.31;100582.80;107752;1245;58981;-67
2022/09/19 11:24:02;;;;;;;4.10;0.80;;;;;;;21.30;30.52;100589.63;107638;1245;60474;-67
2022/09/19 11:26:59;;;;;;;1.60;0.90;;;;;;;20.34;32.48;100578.91;107549;1247;74465;-69
2022/09/19 11:30:15;;;;;;;3.00;0.80;;;;;;;19.98;33.39;100571.45;107895;1245;62208;-70
2022/09/19 11:33:02;;;;;;;2.10;0.80;;;;;;;19.74;33.87;100570.61;107804;1244;59155;-68
2022/09/19 11:36:35;;;;;;;3.60;1.10;;;;;;;19.40;34.54;100567.23;107342;1247;72841;-71
2022/09/19 11:39:35;;;;;;;2.30;0.60;;;;;;;19.32;34.41;100571.25;107789;1245;61345;-71
2022/09/19 11:42:46;;;;;;;2.00;0.90;;;;;;;19.11;34.85;100568.70;107191;1253;61725;-69
2022/09/19 11:45:20;;;;;;;2.60;0.90;;;;;;;19.13;34.59;100569.86;107710;1244;73436;-67
2022/09/19 11:48:27;;;;;;;3.20;1.30;;;;;;;19.06;35.17;100573.61;107775;1247;63045;-66
2022/09/19 11:51:05;;;;;;;3.60;1.10;;;;;;;19.03;35.09;100571.31;107704;1245;60030;-69
2022/09/19 11:54:02;;;;;;;3.00;1.20;;;;;;;19.04;35.25;100569.29;107706;1244;72813;-69
2022/09/19 11:56:49;;;;;;;3.10;1.10;;;;;;;19.13;35.36;100564.57;107629;1247;59025;-70
2022/09/19 11:59:57;;;;;;;3.20;1.00;;;;;;;19.47;34.91;100565.18;107506;1247;61235;-68
2022/09/19 12:02:58;;;;;;;4.90;1.20;;;;;;;20.08;33.32;100556.85;107707;1245;62539;-69
2022/09/19 12:06:07;;;;;;;1.90;0.90;;;;;;;20.43;32.31;100549.04;107680;1247;61632;-71
2022/09/19 12:08:58;;;;;;;1.70;0.90;;;;;;;20.72;32.39;100553.11;107732;1247;69701;-69
2022/09/19 12:11:45;;;;;;;1.30;0.70;;;;;;;21.13;31.89;100554.12;107746;1245;73714;-70
2022/09/19 12:14:36;;;;;;;2.40;1.00;;;;;;;21.02;31.45;100549.22;107601;1247;59091;-72
2022/09/19 12:17:44;;;;;;;2.40;1.20;;;;;;;20.80;31.51;100545.83;107851;1245;60285;-71
2022/09/19 12:20:30;;;;;;;4.60;1.20;;;;;;;20.15;33.00;100542.05;107833;1245;73956;-72
2022/09/19 12:26:04;;;;;;;2.50;0.90;;;;;;;19.77;33.15;100544.83;107894;1245;71004;-68
2022/09/19 12:28:41;;;;;;;2.50;0.80;;;;;;;19.80;33.52;100543.40;107755;1247;73761;-69
2022/09/19 12:31:17;;;;;;;4.40;0.90;;;;;;;19.72;33.70;100545.34;107786;1246;58825;-67
2022/09/19 12:33:57;;;;;;;5.60;1.50;;;;;;;19.59;34.10;100545.23;107639;1247;59039;-71
2022/09/19 12:36:42;;;;;;;3.40;1.00;;;;;;;19.46;34.57;100547.27;107910;1244;72723;-68
2022/09/19 12:39:22;;;;;;;1.20;0.70;;;;;;;19.55;34.23;100550.15;107636;1247;62274;-70
2022/09/19 12:42:09;;;;;;;2.80;0.80;;;;;;;19.54;34.24;100547.97;107806;1247;59991;-70
2022/09/19 12:45:08;;;;;;;2.60;0.90;;;;;;;19.32;34.57;100552.75;107894;1244;73869;-69